sensor_id;sensor_type;location;lat;lon;timestamp;P1;durP1;ratioP1;P2;durP2;ratioP2
73487;SDS011;61721;42.206;25.320;2023-07-09T00:02:24;6.22;;;3.35;;
73487;SDS011;61721;42.206;25.320;2023-07-09T00:04:52;8.65;;;3.38;;
73487;SDS011;61721;42.206;25.320;2023-07-09T00:07:21;7.80;;;3.45;;
73487;SDS011;61721;42.206;25.320;2023-07-09T00:09:51;6.68;;;3.38;;
73487;SDS011;61721;42.206;25.320;2023-07-09T00:12:18;5.45;;;2.85;;
73487;SDS011;61721;42.206;25.320;2023-07-09T00:14:47;5.95;;;3.30;;
73487;SDS011;61721;42.206;25.320;2023-07-09T00:17:18;7.65;;;3.38;;
73487;SDS011;61721;42.206;25.320;2023-07-09T00:19:47;6.20;;;3.58;;
73487;SDS011;61721;42.206;25.320;2023-07-09T00:22:15;5.82;;;3.45;;
73487;SDS011;61721;42.206;25.320;2023-07-09T00:24:43;6.40;;;3.50;;
73487;SDS011;61721;42.206;25.320;2023-07-09T00:27:11;6.22;;;3.25;;
73487;SDS011;61721;42.206;25.320;2023-07-09T00:29:41;5.22;;;3.00;;
73487;SDS011;61721;42.206;25.320;2023-07-09T00:34:47;8.63;;;3.38;;
73487;SDS011;61721;42.206;25.320;2023-07-09T00:37:14;7.70;;;3.10;;
73487;SDS011;61721;42.206;25.320;2023-07-09T00:39:43;9.88;;;3.55;;
73487;SDS011;61721;42.206;25.320;2023-07-09T00:42:11;4.93;;;2.88;;
73487;SDS011;61721;42.206;25.320;2023-07-09T00:44:43;5.25;;;2.83;;
73487;SDS011;61721;42.206;25.320;2023-07-09T00:50:11;8.40;;;3.30;;
73487;SDS011;61721;42.206;25.320;2023-07-09T00:52:49;5.43;;;3.00;;
73487;SDS011;61721;42.206;25.320;2023-07-09T00:55:21;10.30;;;3.55;;
73487;SDS011;61721;42.206;25.320;2023-07-09T00:57:51;5.70;;;3.00;;
73487;SDS011;61721;42.206;25.320;2023-07-09T01:00:23;5.88;;;2.97;;
73487;SDS011;61721;42.206;25.320;2023-07-09T01:02:55;7.40;;;3.03;;
73487;SDS011;61721;42.206;25.320;2023-07-09T01:05:24;7.20;;;3.42;;
73487;SDS011;61721;42.206;25.320;2023-07-09T01:07:51;8.38;;;3.85;;
73487;SDS011;61721;42.206;25.320;2023-07-09T01:10:19;7.93;;;3.45;;
73487;SDS011;61721;42.206;25.320;2023-07-09T01:12:46;5.40;;;3.33;;
73487;SDS011;61721;42.206;25.320;2023-07-09T01:17:43;6.40;;;3.28;;
73487;SDS011;61721;42.206;25.320;2023-07-09T01:20:16;10.27;;;3.50;;
73487;SDS011;61721;42.206;25.320;2023-07-09T01:22:49;8.00;;;4.13;;
73487;SDS011;61721;42.206;25.320;2023-07-09T01:25:22;6.20;;;3.22;;
73487;SDS011;61721;42.206;25.320;2023-07-09T01:27:49;7.78;;;3.50;;
73487;SDS011;61721;42.206;25.320;2023-07-09T01:30:19;6.88;;;3.35;;
73487;SDS011;61721;42.206;25.320;2023-07-09T01:32:49;7.30;;;3.50;;
73487;SDS011;61721;42.206;25.320;2023-07-09T01:35:17;6.40;;;3.33;;
73487;SDS011;61721;42.206;25.320;2023-07-09T01:37:46;8.13;;;3.53;;
73487;SDS011;61721;42.206;25.320;2023-07-09T01:40:16;7.15;;;3.67;;
73487;SDS011;61721;42.206;25.320;2023-07-09T01:42:46;9.10;;;3.38;;
73487;SDS011;61721;42.206;25.320;2023-07-09T01:45:13;6.45;;;3.70;;
73487;SDS011;61721;42.206;25.320;2023-07-09T01:47:41;5.88;;;3.30;;
73487;SDS011;61721;42.206;25.320;2023-07-09T01:50:09;7.05;;;3.70;;
73487;SDS011;61721;42.206;25.320;2023-07-09T01:52:38;8.10;;;3.70;;
73487;SDS011;61721;42.206;25.320;2023-07-09T01:55:10;5.85;;;3.50;;
73487;SDS011;61721;42.206;25.320;2023-07-09T01:57:42;6.97;;;3.55;;
73487;SDS011;61721;42.206;25.320;2023-07-09T02:00:11;10.43;;;3.60;;
73487;SDS011;61721;42.206;25.320;2023-07-09T02:02:40;5.57;;;3.30;;
73487;SDS011;61721;42.206;25.320;2023-07-09T02:05:09;5.82;;;3.13;;
73487;SDS011;61721;42.206;25.320;2023-07-09T02:07:37;5.38;;;2.92;;
73487;SDS011;61721;42.206;25.320;2023-07-09T02:10:04;7.40;;;3.20;;
73487;SDS011;61721;42.206;25.320;2023-07-09T02:12:33;7.07;;;3.70;;
73487;SDS011;61721;42.206;25.320;2023-07-09T02:15:01;7.93;;;3.05;;
73487;SDS011;61721;42.206;25.320;2023-07-09T02:17:28;8.40;;;3.55;;
73487;SDS011;61721;42.206;25.320;2023-07-09T02:19:55;7.95;;;3.63;;
73487;SDS011;61721;42.206;25.320;2023-07-09T02:22:22;6.78;;;3.40;;
73487;SDS011;61721;42.206;25.320;2023-07-09T02:24:50;7.38;;;3.15;;
73487;SDS011;61721;42.206;25.320;2023-07-09T02:27:18;8.70;;;3.20;;
73487;SDS011;61721;42.206;25.320;2023-07-09T02:29:47;6.43;;;3.25;;
73487;SDS011;61721;42.206;25.320;2023-07-09T02:32:17;5.75;;;3.30;;
73487;SDS011;61721;42.206;25.320;2023-07-09T02:34:45;6.78;;;3.40;;
73487;SDS011;61721;42.206;25.320;2023-07-09T02:37:14;8.43;;;3.22;;
73487;SDS011;61721;42.206;25.320;2023-07-09T02:39:43;7.43;;;3.30;;
73487;SDS011;61721;42.206;25.320;2023-07-09T02:42:11;6.05;;;3.15;;
73487;SDS011;61721;42.206;25.320;2023-07-09T02:44:40;6.32;;;3.25;;
73487;SDS011;61721;42.206;25.320;2023-07-09T02:47:10;8.82;;;3.38;;
73487;SDS011;61721;42.206;25.320;2023-07-09T02:49:37;9.10;;;3.47;;
73487;SDS011;61721;42.206;25.320;2023-07-09T02:52:05;4.97;;;3.22;;
73487;SDS011;61721;42.206;25.320;2023-07-09T02:54:33;6.32;;;3.35;;
73487;SDS011;61721;42.206;25.320;2023-07-09T02:57:00;6.40;;;3.50;;
73487;SDS011;61721;42.206;25.320;2023-07-09T02:59:27;5.57;;;3.15;;
73487;SDS011;61721;42.206;25.320;2023-07-09T03:01:54;6.20;;;3.42;;
73487;SDS011;61721;42.206;25.320;2023-07-09T03:04:23;7.30;;;3.33;;
73487;SDS011;61721;42.206;25.320;2023-07-09T03:06:50;5.00;;;2.97;;
73487;SDS011;61721;42.206;25.320;2023-07-09T03:09:18;6.50;;;3.15;;
73487;SDS011;61721;42.206;25.320;2023-07-09T03:11:45;5.97;;;3.45;;
73487;SDS011;61721;42.206;25.320;2023-07-09T03:14:14;5.72;;;3.22;;
73487;SDS011;61721;42.206;25.320;2023-07-09T03:16:41;7.93;;;3.00;;
73487;SDS011;61721;42.206;25.320;2023-07-09T03:19:09;5.25;;;3.13;;
73487;SDS011;61721;42.206;25.320;2023-07-09T03:21:37;6.53;;;2.92;;
73487;SDS011;61721;42.206;25.320;2023-07-09T03:24:05;5.88;;;3.60;;
73487;SDS011;61721;42.206;25.320;2023-07-09T03:26:33;5.88;;;3.92;;
73487;SDS011;61721;42.206;25.320;2023-07-09T03:29:01;6.43;;;3.42;;
73487;SDS011;61721;42.206;25.320;2023-07-09T03:31:29;7.05;;;3.70;;
73487;SDS011;61721;42.206;25.320;2023-07-09T03:34:00;7.00;;;3.70;;
73487;SDS011;61721;42.206;25.320;2023-07-09T03:36:28;14.57;;;3.50;;
73487;SDS011;61721;42.206;25.320;2023-07-09T03:38:57;8.23;;;3.55;;
73487;SDS011;61721;42.206;25.320;2023-07-09T03:41:24;5.75;;;3.25;;
73487;SDS011;61721;42.206;25.320;2023-07-09T03:43:52;8.00;;;3.42;;
73487;SDS011;61721;42.206;25.320;2023-07-09T03:46:19;5.88;;;3.10;;
73487;SDS011;61721;42.206;25.320;2023-07-09T03:48:46;6.82;;;3.60;;
73487;SDS011;61721;42.206;25.320;2023-07-09T03:51:15;7.45;;;3.40;;
73487;SDS011;61721;42.206;25.320;2023-07-09T03:53:43;7.90;;;3.65;;
73487;SDS011;61721;42.206;25.320;2023-07-09T03:56:11;4.90;;;3.17;;
73487;SDS011;61721;42.206;25.320;2023-07-09T03:58:41;7.20;;;3.47;;
73487;SDS011;61721;42.206;25.320;2023-07-09T04:01:09;8.18;;;3.60;;
73487;SDS011;61721;42.206;25.320;2023-07-09T04:03:36;6.30;;;3.58;;
73487;SDS011;61721;42.206;25.320;2023-07-09T04:06:03;6.45;;;3.60;;
73487;SDS011;61721;42.206;25.320;2023-07-09T04:08:30;6.97;;;3.65;;
73487;SDS011;61721;42.206;25.320;2023-07-09T04:10:58;6.15;;;3.20;;
73487;SDS011;61721;42.206;25.320;2023-07-09T04:13:28;7.20;;;3.55;;
73487;SDS011;61721;42.206;25.320;2023-07-09T04:15:55;11.23;;;3.28;;
73487;SDS011;61721;42.206;25.320;2023-07-09T04:18:22;5.53;;;3.53;;
73487;SDS011;61721;42.206;25.320;2023-07-09T04:20:50;6.88;;;3.42;;
73487;SDS011;61721;42.206;25.320;2023-07-09T04:23:17;6.25;;;3.42;;
73487;SDS011;61721;42.206;25.320;2023-07-09T04:25:45;8.52;;;3.67;;
73487;SDS011;61721;42.206;25.320;2023-07-09T04:28:13;6.28;;;3.78;;
73487;SDS011;61721;42.206;25.320;2023-07-09T04:30:46;8.18;;;3.78;;
73487;SDS011;61721;42.206;25.320;2023-07-09T04:33:14;5.72;;;3.75;;
73487;SDS011;61721;42.206;25.320;2023-07-09T04:35:43;6.05;;;3.38;;
73487;SDS011;61721;42.206;25.320;2023-07-09T04:38:11;7.00;;;3.28;;
73487;SDS011;61721;42.206;25.320;2023-07-09T04:40:39;8.30;;;3.60;;
73487;SDS011;61721;42.206;25.320;2023-07-09T04:43:06;10.30;;;3.67;;
73487;SDS011;61721;42.206;25.320;2023-07-09T04:45:34;7.18;;;3.70;;
73487;SDS011;61721;42.206;25.320;2023-07-09T04:48:02;7.57;;;3.83;;
73487;SDS011;61721;42.206;25.320;2023-07-09T04:50:30;7.82;;;4.22;;
73487;SDS011;61721;42.206;25.320;2023-07-09T04:52:58;5.68;;;3.38;;
73487;SDS011;61721;42.206;25.320;2023-07-09T04:55:25;6.78;;;3.33;;
73487;SDS011;61721;42.206;25.320;2023-07-09T04:57:53;7.57;;;3.70;;
73487;SDS011;61721;42.206;25.320;2023-07-09T05:00:20;8.25;;;3.40;;
73487;SDS011;61721;42.206;25.320;2023-07-09T05:02:47;5.97;;;3.10;;
73487;SDS011;61721;42.206;25.320;2023-07-09T05:05:16;6.00;;;3.45;;
73487;SDS011;61721;42.206;25.320;2023-07-09T05:07:43;7.03;;;2.90;;
73487;SDS011;61721;42.206;25.320;2023-07-09T05:10:10;6.20;;;3.28;;
73487;SDS011;61721;42.206;25.320;2023-07-09T05:12:46;6.15;;;3.42;;
73487;SDS011;61721;42.206;25.320;2023-07-09T05:15:15;10.88;;;3.85;;
73487;SDS011;61721;42.206;25.320;2023-07-09T05:17:43;5.75;;;3.40;;
73487;SDS011;61721;42.206;25.320;2023-07-09T05:20:11;4.88;;;3.17;;
73487;SDS011;61721;42.206;25.320;2023-07-09T05:22:40;8.15;;;3.78;;
73487;SDS011;61721;42.206;25.320;2023-07-09T05:25:07;6.60;;;3.15;;
73487;SDS011;61721;42.206;25.320;2023-07-09T05:27:35;5.78;;;3.17;;
73487;SDS011;61721;42.206;25.320;2023-07-09T05:30:02;6.50;;;3.08;;
73487;SDS011;61721;42.206;25.320;2023-07-09T05:32:30;4.88;;;2.85;;
73487;SDS011;61721;42.206;25.320;2023-07-09T05:34:57;9.98;;;3.10;;
73487;SDS011;61721;42.206;25.320;2023-07-09T05:37:24;5.65;;;2.97;;
73487;SDS011;61721;42.206;25.320;2023-07-09T05:39:53;5.15;;;2.92;;
73487;SDS011;61721;42.206;25.320;2023-07-09T05:42:20;7.93;;;3.08;;
73487;SDS011;61721;42.206;25.320;2023-07-09T05:44:47;5.43;;;3.03;;
73487;SDS011;61721;42.206;25.320;2023-07-09T05:47:14;5.68;;;2.95;;
73487;SDS011;61721;42.206;25.320;2023-07-09T05:49:42;6.57;;;3.30;;
73487;SDS011;61721;42.206;25.320;2023-07-09T05:52:09;5.88;;;3.20;;
73487;SDS011;61721;42.206;25.320;2023-07-09T05:54:36;5.35;;;3.08;;
73487;SDS011;61721;42.206;25.320;2023-07-09T05:57:05;5.75;;;3.55;;
73487;SDS011;61721;42.206;25.320;2023-07-09T05:59:33;6.90;;;3.47;;
73487;SDS011;61721;42.206;25.320;2023-07-09T06:02:01;5.60;;;3.50;;
73487;SDS011;61721;42.206;25.320;2023-07-09T06:04:28;5.88;;;2.83;;
73487;SDS011;61721;42.206;25.320;2023-07-09T06:06:56;5.63;;;3.10;;
73487;SDS011;61721;42.206;25.320;2023-07-09T06:09:23;6.15;;;2.97;;
73487;SDS011;61721;42.206;25.320;2023-07-09T06:11:50;5.32;;;3.10;;
73487;SDS011;61721;42.206;25.320;2023-07-09T06:14:19;7.45;;;3.08;;
73487;SDS011;61721;42.206;25.320;2023-07-09T06:16:46;6.40;;;2.78;;
73487;SDS011;61721;42.206;25.320;2023-07-09T06:19:13;4.85;;;3.15;;
73487;SDS011;61721;42.206;25.320;2023-07-09T06:21:40;5.88;;;3.20;;
73487;SDS011;61721;42.206;25.320;2023-07-09T06:24:08;5.50;;;2.97;;
73487;SDS011;61721;42.206;25.320;2023-07-09T06:26:35;5.95;;;2.95;;
73487;SDS011;61721;42.206;25.320;2023-07-09T06:29:03;8.00;;;3.40;;
73487;SDS011;61721;42.206;25.320;2023-07-09T06:31:31;5.85;;;3.15;;
73487;SDS011;61721;42.206;25.320;2023-07-09T06:33:59;7.05;;;3.10;;
73487;SDS011;61721;42.206;25.320;2023-07-09T06:36:26;5.07;;;3.03;;
73487;SDS011;61721;42.206;25.320;2023-07-09T06:38:53;4.70;;;2.95;;
73487;SDS011;61721;42.206;25.320;2023-07-09T06:41:20;7.78;;;3.30;;
73487;SDS011;61721;42.206;25.320;2023-07-09T06:43:48;4.88;;;3.15;;
73487;SDS011;61721;42.206;25.320;2023-07-09T06:46:18;4.93;;;2.85;;
73487;SDS011;61721;42.206;25.320;2023-07-09T06:48:47;6.07;;;2.78;;
73487;SDS011;61721;42.206;25.320;2023-07-09T06:51:15;4.88;;;2.65;;
73487;SDS011;61721;42.206;25.320;2023-07-09T06:53:42;7.18;;;2.78;;
73487;SDS011;61721;42.206;25.320;2023-07-09T06:56:13;5.05;;;2.90;;
73487;SDS011;61721;42.206;25.320;2023-07-09T06:58:40;10.35;;;3.08;;
73487;SDS011;61721;42.206;25.320;2023-07-09T07:01:13;6.25;;;2.70;;
73487;SDS011;61721;42.206;25.320;2023-07-09T07:03:40;4.50;;;2.45;;
73487;SDS011;61721;42.206;25.320;2023-07-09T07:06:10;5.72;;;2.63;;
73487;SDS011;61721;42.206;25.320;2023-07-09T07:11:04;4.57;;;2.05;;
73487;SDS011;61721;42.206;25.320;2023-07-09T07:13:32;4.80;;;2.40;;
73487;SDS011;61721;42.206;25.320;2023-07-09T07:16:01;4.32;;;2.25;;
73487;SDS011;61721;42.206;25.320;2023-07-09T07:18:29;7.55;;;2.22;;
73487;SDS011;61721;42.206;25.320;2023-07-09T07:20:57;4.47;;;2.08;;
73487;SDS011;61721;42.206;25.320;2023-07-09T07:23:25;5.25;;;2.38;;
73487;SDS011;61721;42.206;25.320;2023-07-09T07:25:59;5.03;;;2.20;;
73487;SDS011;61721;42.206;25.320;2023-07-09T07:28:26;4.53;;;2.20;;
73487;SDS011;61721;42.206;25.320;2023-07-09T07:30:59;5.53;;;2.45;;
73487;SDS011;61721;42.206;25.320;2023-07-09T07:33:27;4.43;;;2.17;;
73487;SDS011;61721;42.206;25.320;2023-07-09T07:35:54;9.55;;;2.10;;
73487;SDS011;61721;42.206;25.320;2023-07-09T07:38:21;6.88;;;2.28;;
73487;SDS011;61721;42.206;25.320;2023-07-09T07:40:50;5.30;;;2.08;;
73487;SDS011;61721;42.206;25.320;2023-07-09T07:43:17;4.95;;;2.03;;
73487;SDS011;61721;42.206;25.320;2023-07-09T07:45:44;4.65;;;2.30;;
73487;SDS011;61721;42.206;25.320;2023-07-09T07:48:13;4.25;;;2.22;;
73487;SDS011;61721;42.206;25.320;2023-07-09T07:50:40;4.50;;;2.13;;
73487;SDS011;61721;42.206;25.320;2023-07-09T07:53:08;4.35;;;2.05;;
73487;SDS011;61721;42.206;25.320;2023-07-09T07:55:36;4.28;;;2.13;;
73487;SDS011;61721;42.206;25.320;2023-07-09T07:58:08;5.88;;;2.40;;
73487;SDS011;61721;42.206;25.320;2023-07-09T08:00:36;5.25;;;2.10;;
73487;SDS011;61721;42.206;25.320;2023-07-09T08:03:03;4.82;;;1.85;;
73487;SDS011;61721;42.206;25.320;2023-07-09T08:05:30;6.07;;;2.13;;
73487;SDS011;61721;42.206;25.320;2023-07-09T08:07:57;6.28;;;2.25;;
73487;SDS011;61721;42.206;25.320;2023-07-09T08:10:26;5.18;;;2.00;;
73487;SDS011;61721;42.206;25.320;2023-07-09T08:12:53;4.65;;;1.98;;
73487;SDS011;61721;42.206;25.320;2023-07-09T08:15:36;4.18;;;1.90;;
73487;SDS011;61721;42.206;25.320;2023-07-09T08:18:03;6.03;;;2.20;;
73487;SDS011;61721;42.206;25.320;2023-07-09T08:20:31;4.78;;;2.25;;
73487;SDS011;61721;42.206;25.320;2023-07-09T08:23:00;6.13;;;2.33;;
73487;SDS011;61721;42.206;25.320;2023-07-09T08:25:28;4.55;;;2.30;;
73487;SDS011;61721;42.206;25.320;2023-07-09T08:27:55;7.07;;;2.22;;
73487;SDS011;61721;42.206;25.320;2023-07-09T08:30:22;6.22;;;2.28;;
73487;SDS011;61721;42.206;25.320;2023-07-09T08:32:50;9.05;;;2.13;;
73487;SDS011;61721;42.206;25.320;2023-07-09T08:35:17;4.00;;;2.20;;
73487;SDS011;61721;42.206;25.320;2023-07-09T08:37:46;5.38;;;2.20;;
73487;SDS011;61721;42.206;25.320;2023-07-09T08:40:13;4.22;;;1.90;;
73487;SDS011;61721;42.206;25.320;2023-07-09T08:42:43;7.90;;;2.30;;
73487;SDS011;61721;42.206;25.320;2023-07-09T08:47:47;4.70;;;1.92;;
73487;SDS011;61721;42.206;25.320;2023-07-09T08:50:24;4.47;;;2.22;;
73487;SDS011;61721;42.206;25.320;2023-07-09T08:52:57;6.82;;;3.78;;
73487;SDS011;61721;42.206;25.320;2023-07-09T08:55:27;4.25;;;2.20;;
73487;SDS011;61721;42.206;25.320;2023-07-09T08:58:04;6.57;;;1.90;;
73487;SDS011;61721;42.206;25.320;2023-07-09T09:00:40;6.72;;;2.08;;
73487;SDS011;61721;42.206;25.320;2023-07-09T09:03:14;8.45;;;2.13;;
73487;SDS011;61721;42.206;25.320;2023-07-09T09:05:50;8.05;;;2.10;;
73487;SDS011;61721;42.206;25.320;2023-07-09T09:08:20;5.75;;;1.80;;
73487;SDS011;61721;42.206;25.320;2023-07-09T09:11:03;5.70;;;2.17;;
73487;SDS011;61721;42.206;25.320;2023-07-09T09:13:38;4.35;;;2.30;;
73487;SDS011;61721;42.206;25.320;2023-07-09T09:16:09;6.45;;;2.08;;
73487;SDS011;61721;42.206;25.320;2023-07-09T09:18:46;5.05;;;2.00;;
73487;SDS011;61721;42.206;25.320;2023-07-09T09:21:16;13.65;;;2.33;;
73487;SDS011;61721;42.206;25.320;2023-07-09T09:23:51;6.10;;;1.90;;
73487;SDS011;61721;42.206;25.320;2023-07-09T09:26:22;4.68;;;1.77;;
73487;SDS011;61721;42.206;25.320;2023-07-09T09:28:51;4.57;;;1.80;;
73487;SDS011;61721;42.206;25.320;2023-07-09T09:31:19;5.95;;;1.92;;
73487;SDS011;61721;42.206;25.320;2023-07-09T09:33:48;10.05;;;2.67;;
73487;SDS011;61721;42.206;25.320;2023-07-09T09:36:17;9.00;;;2.50;;
73487;SDS011;61721;42.206;25.320;2023-07-09T09:38:47;5.22;;;2.00;;
73487;SDS011;61721;42.206;25.320;2023-07-09T09:41:21;5.75;;;1.90;;
73487;SDS011;61721;42.206;25.320;2023-07-09T09:43:51;4.28;;;2.00;;
73487;SDS011;61721;42.206;25.320;2023-07-09T09:46:30;6.88;;;1.98;;
73487;SDS011;61721;42.206;25.320;2023-07-09T09:49:00;3.78;;;1.90;;
73487;SDS011;61721;42.206;25.320;2023-07-09T09:51:28;4.35;;;1.70;;
73487;SDS011;61721;42.206;25.320;2023-07-09T09:53:57;4.53;;;1.90;;
73487;SDS011;61721;42.206;25.320;2023-07-09T09:56:27;5.40;;;1.90;;
73487;SDS011;61721;42.206;25.320;2023-07-09T09:58:56;6.75;;;2.30;;
73487;SDS011;61721;42.206;25.320;2023-07-09T10:01:26;5.30;;;2.00;;
73487;SDS011;61721;42.206;25.320;2023-07-09T10:04:04;6.32;;;2.10;;
73487;SDS011;61721;42.206;25.320;2023-07-09T10:06:34;4.32;;;1.80;;
73487;SDS011;61721;42.206;25.320;2023-07-09T10:09:13;3.97;;;2.10;;
73487;SDS011;61721;42.206;25.320;2023-07-09T10:11:48;4.40;;;1.80;;
73487;SDS011;61721;42.206;25.320;2023-07-09T10:14:31;6.60;;;2.05;;
73487;SDS011;61721;42.206;25.320;2023-07-09T10:17:05;4.45;;;1.80;;
73487;SDS011;61721;42.206;25.320;2023-07-09T10:19:42;4.53;;;2.55;;
73487;SDS011;61721;42.206;25.320;2023-07-09T10:22:18;4.40;;;1.88;;
73487;SDS011;61721;42.206;25.320;2023-07-09T10:24:54;4.82;;;1.73;;
73487;SDS011;61721;42.206;25.320;2023-07-09T10:27:29;4.15;;;1.80;;
73487;SDS011;61721;42.206;25.320;2023-07-09T10:30:13;4.72;;;1.83;;
73487;SDS011;61721;42.206;25.320;2023-07-09T10:32:50;5.15;;;1.90;;
73487;SDS011;61721;42.206;25.320;2023-07-09T10:35:27;3.58;;;1.77;;
73487;SDS011;61721;42.206;25.320;2023-07-09T10:38:07;4.80;;;2.08;;
73487;SDS011;61721;42.206;25.320;2023-07-09T10:40:59;4.47;;;1.77;;
73487;SDS011;61721;42.206;25.320;2023-07-09T10:43:31;3.88;;;1.83;;
73487;SDS011;61721;42.206;25.320;2023-07-09T10:46:03;4.30;;;2.00;;
73487;SDS011;61721;42.206;25.320;2023-07-09T10:48:36;3.45;;;1.77;;
73487;SDS011;61721;42.206;25.320;2023-07-09T10:51:10;3.83;;;1.70;;
73487;SDS011;61721;42.206;25.320;2023-07-09T10:53:46;4.82;;;1.77;;
73487;SDS011;61721;42.206;25.320;2023-07-09T10:56:17;9.25;;;2.33;;
73487;SDS011;61721;42.206;25.320;2023-07-09T10:58:50;3.60;;;2.00;;
73487;SDS011;61721;42.206;25.320;2023-07-09T11:01:28;4.70;;;1.80;;
73487;SDS011;61721;42.206;25.320;2023-07-09T11:04:10;4.10;;;1.80;;
73487;SDS011;61721;42.206;25.320;2023-07-09T11:06:46;3.75;;;1.80;;
73487;SDS011;61721;42.206;25.320;2023-07-09T11:09:18;4.40;;;1.70;;
73487;SDS011;61721;42.206;25.320;2023-07-09T11:11:50;4.88;;;1.92;;
73487;SDS011;61721;42.206;25.320;2023-07-09T11:14:25;5.30;;;1.75;;
73487;SDS011;61721;42.206;25.320;2023-07-09T11:16:57;4.05;;;1.98;;
73487;SDS011;61721;42.206;25.320;2023-07-09T11:19:26;6.50;;;1.80;;
73487;SDS011;61721;42.206;25.320;2023-07-09T11:22:02;4.25;;;1.70;;
73487;SDS011;61721;42.206;25.320;2023-07-09T11:24:34;4.65;;;1.75;;
73487;SDS011;61721;42.206;25.320;2023-07-09T11:27:03;4.40;;;2.10;;
73487;SDS011;61721;42.206;25.320;2023-07-09T11:29:46;4.32;;;1.83;;
73487;SDS011;61721;42.206;25.320;2023-07-09T11:32:18;4.13;;;1.70;;
73487;SDS011;61721;42.206;25.320;2023-07-09T11:34:48;4.65;;;2.30;;
73487;SDS011;61721;42.206;25.320;2023-07-09T11:37:17;3.80;;;1.80;;
73487;SDS011;61721;42.206;25.320;2023-07-09T11:39:45;4.57;;;2.50;;
73487;SDS011;61721;42.206;25.320;2023-07-09T11:42:23;4.65;;;1.70;;
73487;SDS011;61721;42.206;25.320;2023-07-09T11:44:53;4.07;;;1.80;;
73487;SDS011;61721;42.206;25.320;2023-07-09T11:47:29;4.40;;;1.85;;
73487;SDS011;61721;42.206;25.320;2023-07-09T11:50:02;3.97;;;1.80;;
73487;SDS011;61721;42.206;25.320;2023-07-09T11:52:33;5.53;;;1.90;;
73487;SDS011;61721;42.206;25.320;2023-07-09T11:55:14;6.13;;;1.92;;
73487;SDS011;61721;42.206;25.320;2023-07-09T11:57:48;4.97;;;2.00;;
73487;SDS011;61721;42.206;25.320;2023-07-09T12:00:19;4.22;;;1.90;;
73487;SDS011;61721;42.206;25.320;2023-07-09T12:02:47;5.22;;;1.90;;
73487;SDS011;61721;42.206;25.320;2023-07-09T12:05:15;4.55;;;2.08;;
73487;SDS011;61721;42.206;25.320;2023-07-09T12:07:48;5.63;;;1.98;;
73487;SDS011;61721;42.206;25.320;2023-07-09T12:10:20;4.10;;;1.77;;
73487;SDS011;61721;42.206;25.320;2023-07-09T12:12:53;4.63;;;1.90;;
73487;SDS011;61721;42.206;25.320;2023-07-09T12:15:22;4.90;;;2.00;;
73487;SDS011;61721;42.206;25.320;2023-07-09T12:17:58;7.35;;;2.33;;
73487;SDS011;61721;42.206;25.320;2023-07-09T12:20:28;5.00;;;1.80;;
73487;SDS011;61721;42.206;25.320;2023-07-09T12:25:59;3.95;;;1.80;;
73487;SDS011;61721;42.206;25.320;2023-07-09T12:28:28;3.72;;;1.70;;
73487;SDS011;61721;42.206;25.320;2023-07-09T12:30:56;5.40;;;1.92;;
73487;SDS011;61721;42.206;25.320;2023-07-09T12:33:24;3.53;;;1.60;;
73487;SDS011;61721;42.206;25.320;2023-07-09T12:35:53;4.63;;;1.83;;
73487;SDS011;61721;42.206;25.320;2023-07-09T12:38:24;4.68;;;1.95;;
73487;SDS011;61721;42.206;25.320;2023-07-09T12:40:54;10.90;;;2.20;;
73487;SDS011;61721;42.206;25.320;2023-07-09T12:43:23;4.13;;;1.80;;
73487;SDS011;61721;42.206;25.320;2023-07-09T12:45:52;5.80;;;1.65;;
73487;SDS011;61721;42.206;25.320;2023-07-09T12:48:20;4.55;;;1.63;;
73487;SDS011;61721;42.206;25.320;2023-07-09T12:50:51;6.53;;;1.60;;
73487;SDS011;61721;42.206;25.320;2023-07-09T12:53:27;4.47;;;2.10;;
73487;SDS011;61721;42.206;25.320;2023-07-09T12:55:58;3.97;;;1.85;;
73487;SDS011;61721;42.206;25.320;2023-07-09T12:58:28;4.00;;;1.50;;
73487;SDS011;61721;42.206;25.320;2023-07-09T13:00:56;6.20;;;1.73;;
73487;SDS011;61721;42.206;25.320;2023-07-09T13:03:25;6.30;;;2.00;;
73487;SDS011;61721;42.206;25.320;2023-07-09T13:05:55;4.60;;;1.80;;
73487;SDS011;61721;42.206;25.320;2023-07-09T13:08:24;4.20;;;1.70;;
73487;SDS011;61721;42.206;25.320;2023-07-09T13:10:52;4.45;;;1.67;;
73487;SDS011;61721;42.206;25.320;2023-07-09T13:13:21;4.22;;;1.98;;
73487;SDS011;61721;42.206;25.320;2023-07-09T13:15:51;4.97;;;1.60;;
73487;SDS011;61721;42.206;25.320;2023-07-09T13:18:22;3.85;;;1.80;;
73487;SDS011;61721;42.206;25.320;2023-07-09T13:20:50;7.15;;;1.98;;
73487;SDS011;61721;42.206;25.320;2023-07-09T13:23:19;11.80;;;1.80;;
73487;SDS011;61721;42.206;25.320;2023-07-09T13:25:47;4.32;;;1.80;;
73487;SDS011;61721;42.206;25.320;2023-07-09T13:28:18;5.07;;;1.85;;
73487;SDS011;61721;42.206;25.320;2023-07-09T13:30:48;4.15;;;1.83;;
73487;SDS011;61721;42.206;25.320;2023-07-09T13:35:45;4.28;;;1.70;;
73487;SDS011;61721;42.206;25.320;2023-07-09T13:40:53;4.05;;;1.67;;
73487;SDS011;61721;42.206;25.320;2023-07-09T13:43:26;4.43;;;1.73;;
73487;SDS011;61721;42.206;25.320;2023-07-09T13:45:56;4.47;;;1.85;;
73487;SDS011;61721;42.206;25.320;2023-07-09T13:48:24;5.13;;;1.90;;
73487;SDS011;61721;42.206;25.320;2023-07-09T13:50:52;3.80;;;2.00;;
73487;SDS011;61721;42.206;25.320;2023-07-09T13:53:21;6.00;;;1.88;;
73487;SDS011;61721;42.206;25.320;2023-07-09T13:55:49;3.97;;;2.20;;
73487;SDS011;61721;42.206;25.320;2023-07-09T13:58:19;4.07;;;1.90;;
73487;SDS011;61721;42.206;25.320;2023-07-09T14:00:49;4.60;;;2.03;;
73487;SDS011;61721;42.206;25.320;2023-07-09T14:03:23;4.15;;;2.08;;
73487;SDS011;61721;42.206;25.320;2023-07-09T14:05:53;4.15;;;1.90;;
73487;SDS011;61721;42.206;25.320;2023-07-09T14:08:20;4.68;;;1.85;;
73487;SDS011;61721;42.206;25.320;2023-07-09T14:10:48;5.05;;;2.10;;
73487;SDS011;61721;42.206;25.320;2023-07-09T14:13:22;6.75;;;2.15;;
73487;SDS011;61721;42.206;25.320;2023-07-09T14:15:52;5.47;;;1.90;;
73487;SDS011;61721;42.206;25.320;2023-07-09T14:18:21;4.78;;;1.83;;
73487;SDS011;61721;42.206;25.320;2023-07-09T14:20:49;3.95;;;1.85;;
73487;SDS011;61721;42.206;25.320;2023-07-09T14:23:17;4.45;;;2.00;;
73487;SDS011;61721;42.206;25.320;2023-07-09T14:25:46;4.35;;;1.73;;
73487;SDS011;61721;42.206;25.320;2023-07-09T14:28:17;17.85;;;2.58;;
73487;SDS011;61721;42.206;25.320;2023-07-09T14:30:46;5.05;;;1.70;;
73487;SDS011;61721;42.206;25.320;2023-07-09T14:33:17;4.32;;;1.90;;
73487;SDS011;61721;42.206;25.320;2023-07-09T14:35:46;5.57;;;2.35;;
73487;SDS011;61721;42.206;25.320;2023-07-09T14:38:16;4.28;;;2.25;;
73487;SDS011;61721;42.206;25.320;2023-07-09T14:40:46;6.50;;;2.10;;
73487;SDS011;61721;42.206;25.320;2023-07-09T14:43:16;4.07;;;2.08;;
73487;SDS011;61721;42.206;25.320;2023-07-09T14:45:44;4.65;;;1.80;;
73487;SDS011;61721;42.206;25.320;2023-07-09T14:48:12;4.50;;;1.90;;
73487;SDS011;61721;42.206;25.320;2023-07-09T14:50:42;3.97;;;2.03;;
73487;SDS011;61721;42.206;25.320;2023-07-09T14:55:42;4.97;;;2.10;;
73487;SDS011;61721;42.206;25.320;2023-07-09T14:58:15;5.35;;;1.88;;
73487;SDS011;61721;42.206;25.320;2023-07-09T15:00:44;7.38;;;2.20;;
73487;SDS011;61721;42.206;25.320;2023-07-09T15:03:13;5.20;;;2.20;;
73487;SDS011;61721;42.206;25.320;2023-07-09T15:05:47;4.60;;;1.90;;
73487;SDS011;61721;42.206;25.320;2023-07-09T15:08:16;4.75;;;1.92;;
73487;SDS011;61721;42.206;25.320;2023-07-09T15:10:47;3.90;;;1.90;;
73487;SDS011;61721;42.206;25.320;2023-07-09T15:15:52;3.50;;;1.80;;